Pagina principale
METAR-TAF:

METAR-TAF

Aeroporti :

Aeroporto Internazionale di Gedda-Re Abd al-Aziz

Gedda, Arabia Saudita

latitudine: 21-42N, longitudine: 039-11E, altezza: 15 m

Osservazione

Il bollettino è stato emesso 42 minuti fa, alle 01:00 UTC
Vento calmo
Temperature 26°C
Umidità 65%
Pressione 1007 hPa
Visibilità 10 km o più
nessuna nube inferiore a 1500 m e nessun cumulonembo

METAR: OEJN 310100Z 00000KT CAVOK 26/19 Q1007 NOSIG

Ora: 04:42 (01:42 UTC)

Previsione

Il bollettino è stato emesso 2 ore e 32 minuti fa, alle 23:10 UTC
Previsione valida dal 31 alle 00 UTC al 01 alle 06 UTC
Vento 3 kt da direzioni variabili
Visibilità 10 km o più
nessuna nube inferiore a 1500 m e nessun cumulonembo
Evoluzione graduale
dal 31 alle 06 UTC al 31 alle 08 UTC
Vento 20 kt da nord/nord-ovest

TAF: OEJN 302310Z 3100/0106 VRB03KT CAVOK BECMG 3106/3108 33120KT

Osservazioni e previsioni meteorologiche di più di 4000 aeroporti (messaggi METAR e TAF).

Le stazioni disponibili sono rappresentate dai dischi gialli e rossi sulla carta.

Puntare il mouse per vedere il nome della stazione.

Clicca sopra per visualizzare le osservazioni e previsioni meteorologiche.

Per cambiare la mappa : fare clic sui pulsanti verdi con una croce nera per ingrandire, il pulsante verde con un trattino per diminuire, o sulla freccia verde per le mappe adiacenti.


METAR-TAF: